createdAt,value
2023-03-31T00:02:13.902Z,75.20
2023-03-31T00:04:55.283Z,74.98
2023-03-31T00:07:27.254Z,75.07
2023-03-31T00:10:16.765Z,74.94
2023-03-31T00:12:49.817Z,74.72
2023-03-31T00:15:21.599Z,75.16
2023-03-31T00:17:53.671Z,75.30
2023-03-31T00:20:25.402Z,75.26
2023-03-31T00:22:59.003Z,75.24
2023-03-31T00:25:30.889Z,75.04
2023-03-31T00:28:02.592Z,74.93
2023-03-31T00:30:34.699Z,74.97
2023-03-31T00:33:07.082Z,75.43
2023-03-31T00:35:39.255Z,75.56
2023-03-31T00:38:14.021Z,75.36
2023-03-31T00:40:48.640Z,75.34
2023-03-31T00:43:36.935Z,75.42
2023-03-31T00:46:15.714Z,75.42
2023-03-31T00:48:52.132Z,75.73
2023-03-31T00:51:28.287Z,75.83
2023-03-31T00:54:06.446Z,75.44
2023-03-31T00:56:41.811Z,75.42
2023-03-31T00:59:15.616Z,75.32
2023-03-31T01:01:50.648Z,75.40
2023-03-31T01:04:22.890Z,75.42
2023-03-31T01:07:03.394Z,75.57
2023-03-31T01:09:35.744Z,75.98
2023-03-31T01:12:09.662Z,76.25
2023-03-31T01:14:48.863Z,76.36
2023-03-31T01:17:28.823Z,76.94
2023-03-31T01:20:12.630Z,77.09
2023-03-31T01:22:50.017Z,76.93
2023-03-31T01:26:09.386Z,77.04
2023-03-31T01:29:08.876Z,76.88
2023-03-31T01:32:13.925Z,76.83
2023-03-31T01:34:51.904Z,77.55
2023-03-31T01:38:00.939Z,77.32
2023-03-31T01:40:46.597Z,77.51
2023-03-31T01:43:33.627Z,77.60
2023-03-31T01:46:21.205Z,77.03
2023-03-31T01:49:22.975Z,77.42
2023-03-31T01:52:11.593Z,76.95
2023-03-31T01:55:10.423Z,76.80
2023-03-31T01:58:07.883Z,77.17
2023-03-31T02:00:45.292Z,76.56
2023-03-31T02:03:29.456Z,76.46
2023-03-31T02:06:10.590Z,76.36
2023-03-31T02:08:52.556Z,76.67
2023-03-31T02:11:25.711Z,76.92
2023-03-31T02:14:01.999Z,76.65
2023-03-31T02:16:41.792Z,76.84
2023-03-31T02:19:19.709Z,76.57
2023-03-31T02:21:51.947Z,76.71
2023-03-31T02:24:26.560Z,76.24
2023-03-31T02:27:08.608Z,76.96
2023-03-31T02:29:42.357Z,76.99
2023-03-31T02:32:32.456Z,76.48
2023-03-31T02:35:07.049Z,76.74
2023-03-31T02:37:40.533Z,77.03
2023-03-31T02:40:22.630Z,77.64
2023-03-31T02:42:54.549Z,77.36
2023-03-31T02:45:41.361Z,77.22
2023-03-31T02:48:19.418Z,77.80
2023-03-31T02:51:03.583Z,77.20
2023-03-31T02:53:48.752Z,77.04
2023-03-31T02:56:39.799Z,77.20
2023-03-31T02:59:11.499Z,77.45
2023-03-31T03:01:46.540Z,77.53
2023-03-31T03:04:53.887Z,77.45
2023-03-31T03:08:19.599Z,77.10
2023-03-31T03:10:57.344Z,76.74
2023-03-31T03:13:53.567Z,77.61
2023-03-31T03:16:41.482Z,77.52
2023-03-31T03:19:23.519Z,77.13
2023-03-31T03:21:55.889Z,76.79
2023-03-31T03:24:29.878Z,77.09
2023-03-31T03:27:01.981Z,76.77
2023-03-31T03:29:33.793Z,76.71
2023-03-31T03:32:06.920Z,76.79
2023-03-31T03:34:38.705Z,77.00
2023-03-31T03:37:10.445Z,77.11
2023-03-31T03:39:42.249Z,76.47
2023-03-31T03:42:17.000Z,76.00
2023-03-31T03:44:48.691Z,76.78
2023-03-31T03:47:20.501Z,76.39
2023-03-31T03:49:52.428Z,76.36
2023-03-31T03:52:24.208Z,76.42
2023-03-31T03:54:55.953Z,76.04
2023-03-31T03:57:28.258Z,76.61
2023-03-31T04:00:00.060Z,76.30
2023-03-31T04:02:31.914Z,76.59
2023-03-31T04:05:04.169Z,76.35
2023-03-31T04:07:35.910Z,76.17
2023-03-31T04:10:08.375Z,75.94
2023-03-31T04:12:40.408Z,75.94
2023-03-31T04:15:12.158Z,75.89
2023-03-31T04:17:51.184Z,76.49
2023-03-31T04:20:27.826Z,76.06
2023-03-31T04:23:00.025Z,76.36
2023-03-31T04:25:32.099Z,76.03
2023-03-31T04:28:07.017Z,75.89
2023-03-31T04:30:39.842Z,75.71
2023-03-31T04:33:15.461Z,75.90
2023-03-31T04:35:52.742Z,75.93
2023-03-31T04:38:27.165Z,76.12
2023-03-31T04:40:58.908Z,76.13
2023-03-31T04:43:30.888Z,76.06
2023-03-31T04:46:02.782Z,75.22
2023-03-31T04:48:34.939Z,75.81
2023-03-31T04:51:07.361Z,75.20
2023-03-31T04:53:39.057Z,75.42
2023-03-31T04:56:11.262Z,75.79
2023-03-31T04:58:46.236Z,76.18
2023-03-31T05:01:21.737Z,76.25
2023-03-31T05:03:53.482Z,76.09
2023-03-31T05:06:26.104Z,75.39
2023-03-31T05:09:00.045Z,75.36
2023-03-31T05:11:31.851Z,75.13
2023-03-31T05:14:04.051Z,75.31
2023-03-31T05:16:36.122Z,75.27
2023-03-31T05:19:08.316Z,75.26
2023-03-31T05:21:40.036Z,75.01
2023-03-31T05:24:11.838Z,75.11
2023-03-31T05:26:48.474Z,74.13
2023-03-31T05:29:20.702Z,72.04
2023-03-31T05:31:53.993Z,71.25
2023-03-31T05:34:25.917Z,70.65
2023-03-31T05:36:57.795Z,70.65
2023-03-31T05:39:33.090Z,70.59
2023-03-31T05:42:05.976Z,70.12
2023-03-31T05:44:37.818Z,69.88
2023-03-31T05:47:09.619Z,70.16
2023-03-31T05:49:41.475Z,70.38
2023-03-31T05:52:13.205Z,70.50
2023-03-31T05:54:45.295Z,70.35
2023-03-31T05:57:17.252Z,70.28
2023-03-31T05:59:50.991Z,69.93
2023-03-31T06:02:22.812Z,69.57
2023-03-31T06:04:54.606Z,69.17
2023-03-31T06:07:26.326Z,67.66
2023-03-31T06:09:58.072Z,66.16
2023-03-31T06:12:29.803Z,63.94
2023-03-31T06:15:01.683Z,63.41
2023-03-31T06:17:33.460Z,61.14
2023-03-31T06:20:16.303Z,60.77
2023-03-31T06:22:56.206Z,59.43
2023-03-31T06:25:32.388Z,57.29
2023-03-31T06:28:09.665Z,56.34
2023-03-31T06:30:41.650Z,56.11
2023-03-31T06:33:13.951Z,55.09
2023-03-31T06:35:45.771Z,54.59
2023-03-31T06:38:17.460Z,53.94
2023-03-31T06:40:49.194Z,53.09
2023-03-31T06:43:21.058Z,54.47
2023-03-31T06:45:54.288Z,55.98
2023-03-31T06:48:26.924Z,57.10
2023-03-31T06:51:07.308Z,57.73
2023-03-31T06:53:39.228Z,58.59
2023-03-31T06:56:11.205Z,59.51
2023-03-31T06:58:42.977Z,60.93
2023-03-31T07:01:14.793Z,61.40
2023-03-31T07:03:46.598Z,61.85
2023-03-31T07:06:18.382Z,62.61
2023-03-31T07:08:52.952Z,62.84
2023-03-31T07:11:24.940Z,63.29
2023-03-31T07:13:56.709Z,63.20
2023-03-31T07:16:28.522Z,63.70
2023-03-31T07:19:04.297Z,64.19
2023-03-31T07:21:37.068Z,64.44
2023-03-31T07:24:08.814Z,64.04
2023-03-31T07:26:40.898Z,64.07
2023-03-31T07:29:12.685Z,63.91
2023-03-31T07:31:47.671Z,64.29
2023-03-31T07:34:19.623Z,63.92
2023-03-31T07:36:51.655Z,64.17
2023-03-31T07:39:23.551Z,63.89
2023-03-31T07:41:55.580Z,63.02
2023-03-31T07:44:27.345Z,62.16
2023-03-31T07:47:01.390Z,60.56
2023-03-31T07:49:35.459Z,58.24
2023-03-31T07:52:07.331Z,58.68
2023-03-31T07:54:39.243Z,58.16
2023-03-31T07:57:11.064Z,58.75
2023-03-31T07:59:44.375Z,58.91
2023-03-31T08:02:17.593Z,58.68
2023-03-31T08:04:49.413Z,59.04
2023-03-31T08:07:21.150Z,59.16
2023-03-31T08:09:52.946Z,59.20
2023-03-31T08:12:25.011Z,59.70
2023-03-31T08:14:56.706Z,59.44
2023-03-31T08:17:28.524Z,60.16
2023-03-31T08:20:05.136Z,59.58
2023-03-31T08:22:39.946Z,59.94
2023-03-31T08:25:11.754Z,60.81
2023-03-31T08:27:43.449Z,61.10
2023-03-31T08:30:19.866Z,62.32
2023-03-31T08:32:51.785Z,62.72
2023-03-31T08:35:23.593Z,62.61
2023-03-31T08:37:55.835Z,63.58
2023-03-31T08:40:29.555Z,64.18
2023-03-31T08:43:31.364Z,65.22
2023-03-31T08:46:07.739Z,65.06
2023-03-31T08:48:48.978Z,65.85
2023-03-31T08:51:40.380Z,65.61
2023-03-31T08:54:38.689Z,66.14
2023-03-31T08:57:25.385Z,66.24
2023-03-31T09:00:07.098Z,66.20
2023-03-31T09:03:07.126Z,66.57
2023-03-31T09:05:59.614Z,66.72
2023-03-31T09:08:33.709Z,66.66
2023-03-31T09:11:24.712Z,66.12
2023-03-31T09:14:13.339Z,66.98
2023-03-31T09:17:14.005Z,66.63
2023-03-31T09:19:57.739Z,67.22
2023-03-31T09:22:38.322Z,66.66
2023-03-31T09:25:18.744Z,67.27
2023-03-31T09:27:54.625Z,67.30
2023-03-31T09:30:35.830Z,67.69
2023-03-31T09:33:33.882Z,67.16
2023-03-31T09:36:15.959Z,67.17
2023-03-31T09:38:48.329Z,67.39
2023-03-31T09:41:20.625Z,67.49
2023-03-31T09:43:53.697Z,66.90
2023-03-31T09:46:36.748Z,67.06
2023-03-31T09:49:14.034Z,67.23
2023-03-31T09:51:49.079Z,67.40
2023-03-31T09:54:49.843Z,67.45
2023-03-31T09:57:31.219Z,67.22
2023-03-31T10:00:14.153Z,67.96
2023-03-31T10:02:50.050Z,68.42
2023-03-31T10:05:32.516Z,67.96
2023-03-31T10:08:29.040Z,67.85
2023-03-31T10:11:04.041Z,68.50
2023-03-31T10:14:02.336Z,68.32
2023-03-31T10:16:44.562Z,68.06
2023-03-31T10:19:22.143Z,68.82
2023-03-31T10:22:06.533Z,69.52
2023-03-31T10:24:47.319Z,68.74
2023-03-31T10:27:32.445Z,69.54
2023-03-31T10:30:09.407Z,69.11
2023-03-31T10:32:50.317Z,69.59
2023-03-31T10:35:35.437Z,69.45
2023-03-31T10:38:12.291Z,69.47
2023-03-31T10:40:56.445Z,69.35
2023-03-31T10:43:36.418Z,69.82
2023-03-31T10:46:09.216Z,70.13
2023-03-31T10:48:42.497Z,70.11
2023-03-31T10:51:25.962Z,70.07
2023-03-31T10:54:03.468Z,70.10
2023-03-31T10:56:58.325Z,70.35
2023-03-31T10:59:46.842Z,70.24
2023-03-31T11:02:27.655Z,69.96
2023-03-31T11:05:25.474Z,70.37
2023-03-31T11:08:07.761Z,70.53
2023-03-31T11:11:15.995Z,71.06
2023-03-31T11:14:01.268Z,71.15
2023-03-31T11:16:51.922Z,71.23
2023-03-31T11:19:48.293Z,72.37
2023-03-31T11:22:52.601Z,73.57
2023-03-31T11:25:43.625Z,74.00
2023-03-31T11:28:36.794Z,73.38
2023-03-31T11:31:08.682Z,74.50
2023-03-31T11:33:56.821Z,75.64
2023-03-31T11:36:36.808Z,76.21
2023-03-31T11:39:28.779Z,76.09
2023-03-31T11:42:13.557Z,76.48
2023-03-31T11:44:53.124Z,75.99
2023-03-31T11:47:32.731Z,75.11
2023-03-31T11:50:11.596Z,73.64
2023-03-31T11:53:00.779Z,73.03
2023-03-31T11:55:34.969Z,73.23
2023-03-31T11:58:20.778Z,72.55
2023-03-31T12:01:00.177Z,71.51
2023-03-31T12:03:39.299Z,71.76
2023-03-31T12:06:19.893Z,71.34
2023-03-31T12:09:13.370Z,70.72
2023-03-31T12:12:06.213Z,70.60
2023-03-31T12:14:55.638Z,70.03
2023-03-31T12:17:27.888Z,70.03
2023-03-31T12:20:07.345Z,70.33
2023-03-31T12:22:44.911Z,69.82
2023-03-31T12:25:26.171Z,69.45
2023-03-31T12:27:59.936Z,69.66
2023-03-31T12:30:46.237Z,70.20
2023-03-31T12:33:43.047Z,70.17
2023-03-31T12:36:30.016Z,70.17
2023-03-31T12:39:33.691Z,66.69
2023-03-31T12:42:08.108Z,65.46
2023-03-31T12:45:02.693Z,65.80
2023-03-31T12:48:13.234Z,65.24
2023-03-31T12:51:20.684Z,64.04
2023-03-31T12:54:01.536Z,63.21
2023-03-31T12:57:01.705Z,62.70
2023-03-31T12:59:41.090Z,63.37
2023-03-31T13:02:16.254Z,61.81
2023-03-31T13:04:49.696Z,61.67
2023-03-31T13:07:29.161Z,61.68
2023-03-31T13:10:19.884Z,61.46
2023-03-31T13:13:14.794Z,62.10
2023-03-31T13:16:01.240Z,62.47
2023-03-31T13:18:35.585Z,62.21
2023-03-31T13:21:08.397Z,62.27
2023-03-31T13:23:46.708Z,63.26
2023-03-31T13:26:33.664Z,64.69
2023-03-31T13:29:14.850Z,65.86
2023-03-31T13:32:04.837Z,66.69
2023-03-31T13:35:04.103Z,66.67
2023-03-31T13:38:14.398Z,65.43
2023-03-31T13:41:03.935Z,64.91
2023-03-31T13:43:59.618Z,64.43
2023-03-31T13:46:52.159Z,63.85
2023-03-31T13:49:55.904Z,63.69
2023-03-31T13:52:53.867Z,64.05
2023-03-31T13:55:53.384Z,63.31
2023-03-31T13:58:35.071Z,63.24
2023-03-31T14:01:37.323Z,62.83
2023-03-31T14:04:50.462Z,64.54
2023-03-31T14:07:42.611Z,59.33
2023-03-31T14:10:45.200Z,59.87
2023-03-31T14:13:20.031Z,60.03
2023-03-31T14:15:58.678Z,60.85
2023-03-31T14:18:35.787Z,61.26
2023-03-31T14:21:34.946Z,61.31
2023-03-31T14:24:24.530Z,61.64
2023-03-31T14:27:18.762Z,61.89
2023-03-31T14:30:13.105Z,62.05
2023-03-31T14:33:15.799Z,62.73
2023-03-31T14:36:16.029Z,62.95
2023-03-31T14:38:47.957Z,62.35
2023-03-31T14:41:21.594Z,62.73
2023-03-31T14:43:53.335Z,62.83
2023-03-31T14:46:25.063Z,63.42
2023-03-31T14:48:57.712Z,63.69
2023-03-31T14:51:31.045Z,63.62
2023-03-31T14:54:02.963Z,64.18
2023-03-31T14:56:40.556Z,65.09
2023-03-31T14:59:22.089Z,64.31
2023-03-31T15:01:56.400Z,64.51
2023-03-31T15:04:42.472Z,64.59
2023-03-31T15:07:16.422Z,64.60
2023-03-31T15:09:51.528Z,65.46
2023-03-31T15:12:28.873Z,65.50
2023-03-31T15:15:06.544Z,66.46
2023-03-31T15:17:41.676Z,66.94
2023-03-31T15:20:27.972Z,66.43
2023-03-31T15:23:00.033Z,66.03
2023-03-31T15:25:39.564Z,66.16
2023-03-31T15:28:16.786Z,66.00
2023-03-31T15:31:03.479Z,65.94
2023-03-31T15:33:42.158Z,66.25
2023-03-31T15:36:17.242Z,66.29
2023-03-31T15:38:57.275Z,66.13
2023-03-31T15:41:31.809Z,66.35
2023-03-31T15:44:36.565Z,66.71
2023-03-31T15:47:24.495Z,66.48
2023-03-31T15:50:17.007Z,66.12
2023-03-31T15:52:55.735Z,65.94
2023-03-31T15:55:31.998Z,66.48
2023-03-31T15:58:04.103Z,66.37
2023-03-31T16:00:47.271Z,66.65
2023-03-31T16:03:38.756Z,67.09
2023-03-31T16:06:16.431Z,66.76
2023-03-31T16:09:15.138Z,66.97
2023-03-31T16:12:10.693Z,66.75
2023-03-31T16:14:53.834Z,67.10
2023-03-31T16:17:34.960Z,66.89
2023-03-31T16:20:11.322Z,66.67
2023-03-31T16:22:47.776Z,66.97
2023-03-31T16:25:23.082Z,67.01
2023-03-31T16:27:57.711Z,66.84
2023-03-31T16:30:38.541Z,66.69
2023-03-31T16:33:12.305Z,67.05
2023-03-31T16:35:50.416Z,67.13
2023-03-31T16:38:24.618Z,67.19
2023-03-31T16:40:58.781Z,67.50
2023-03-31T16:43:31.562Z,67.33
2023-03-31T16:46:04.491Z,67.60
2023-03-31T16:48:36.278Z,67.43
2023-03-31T16:51:07.968Z,67.39
2023-03-31T16:53:40.410Z,67.49
2023-03-31T16:56:15.004Z,67.42
2023-03-31T16:58:46.921Z,67.31
2023-03-31T17:01:18.829Z,67.26
2023-03-31T17:03:52.345Z,67.13
2023-03-31T17:06:24.333Z,66.91
2023-03-31T17:08:56.292Z,66.91
2023-03-31T17:11:28.532Z,66.82
2023-03-31T17:14:00.413Z,67.14
2023-03-31T17:16:45.012Z,67.38
2023-03-31T17:19:22.692Z,67.43
2023-03-31T17:21:55.186Z,67.36
2023-03-31T17:24:27.467Z,67.39
2023-03-31T17:26:59.347Z,67.35
2023-03-31T17:29:32.097Z,67.30
2023-03-31T17:32:04.320Z,67.46
2023-03-31T17:34:36.255Z,67.50
2023-03-31T17:37:08.275Z,67.27
2023-03-31T17:39:40.081Z,67.48
2023-03-31T17:42:13.380Z,67.75
2023-03-31T17:44:46.451Z,67.69
2023-03-31T17:47:19.191Z,67.62
2023-03-31T17:49:52.404Z,67.63
2023-03-31T17:52:25.045Z,67.49
2023-03-31T17:54:57.787Z,67.29
2023-03-31T17:57:31.140Z,67.63
2023-03-31T18:00:05.959Z,67.78
2023-03-31T18:02:42.224Z,67.80
2023-03-31T18:05:15.856Z,67.64
2023-03-31T18:07:49.652Z,67.86
2023-03-31T18:10:22.747Z,67.83
2023-03-31T18:12:55.096Z,67.93
2023-03-31T18:15:26.851Z,68.04
2023-03-31T18:17:58.631Z,67.91
2023-03-31T18:20:30.681Z,68.14
2023-03-31T18:23:02.469Z,68.04
2023-03-31T18:25:34.545Z,68.03
2023-03-31T18:28:06.756Z,68.07
2023-03-31T18:30:38.987Z,68.24
2023-03-31T18:33:11.736Z,68.85
2023-03-31T18:35:45.566Z,68.13
2023-03-31T18:38:18.524Z,68.29
2023-03-31T18:40:52.531Z,67.94
2023-03-31T18:43:24.872Z,68.16
2023-03-31T18:45:58.601Z,68.17
2023-03-31T18:48:30.654Z,67.96
2023-03-31T18:51:02.864Z,68.09
2023-03-31T18:53:34.556Z,68.00
2023-03-31T18:56:06.449Z,68.48
2023-03-31T18:58:39.629Z,68.40
2023-03-31T19:01:11.489Z,68.67
2023-03-31T19:03:44.858Z,68.76
2023-03-31T19:06:17.791Z,68.51
2023-03-31T19:08:49.682Z,68.74
2023-03-31T19:11:23.783Z,68.92
2023-03-31T19:13:56.526Z,68.96
2023-03-31T19:16:28.256Z,68.91
2023-03-31T19:19:00.007Z,68.92
2023-03-31T19:21:33.276Z,69.23
2023-03-31T19:24:05.990Z,68.78
2023-03-31T19:26:37.742Z,69.34
2023-03-31T19:29:09.692Z,69.08
2023-03-31T19:31:41.553Z,69.34
2023-03-31T19:34:14.097Z,69.27
2023-03-31T19:36:45.841Z,69.26
2023-03-31T19:39:18.138Z,69.26
2023-03-31T19:41:49.879Z,69.40
2023-03-31T19:44:21.759Z,69.99
2023-03-31T19:46:53.562Z,69.94
2023-03-31T19:49:25.495Z,70.31
2023-03-31T19:51:57.200Z,70.19
2023-03-31T19:54:28.909Z,70.14
2023-03-31T19:57:00.995Z,70.18
2023-03-31T19:59:32.814Z,70.72
2023-03-31T20:02:06.875Z,70.12
2023-03-31T20:04:39.056Z,70.25
2023-03-31T20:07:13.866Z,70.03
2023-03-31T20:09:46.096Z,70.31
2023-03-31T20:12:18.121Z,70.25
2023-03-31T20:14:49.921Z,70.41
2023-03-31T20:17:21.670Z,70.54
2023-03-31T20:19:53.422Z,70.63
2023-03-31T20:22:26.407Z,70.70
2023-03-31T20:24:58.287Z,70.88
2023-03-31T20:27:30.060Z,70.98
2023-03-31T20:30:02.186Z,70.82
2023-03-31T20:32:33.952Z,70.71
2023-03-31T20:35:07.137Z,70.87
2023-03-31T20:37:38.944Z,70.63
2023-03-31T20:40:12.098Z,70.54
2023-03-31T20:42:43.822Z,70.76
2023-03-31T20:45:15.627Z,70.77
2023-03-31T20:47:47.396Z,70.43
2023-03-31T20:50:22.959Z,70.24
2023-03-31T20:52:58.651Z,70.23
2023-03-31T20:55:30.559Z,69.91
2023-03-31T20:58:03.638Z,70.23
2023-03-31T21:00:35.868Z,70.01
2023-03-31T21:03:07.750Z,69.69
2023-03-31T21:05:47.905Z,69.54
2023-03-31T21:08:19.684Z,69.75
2023-03-31T21:10:51.668Z,69.86
2023-03-31T21:13:23.605Z,69.87
2023-03-31T21:15:55.968Z,69.87
2023-03-31T21:18:29.567Z,69.77
2023-03-31T21:21:03.675Z,69.83
2023-03-31T21:23:37.023Z,70.03
2023-03-31T21:26:11.316Z,70.02
2023-03-31T21:28:44.144Z,70.02
2023-03-31T21:31:18.844Z,69.94
2023-03-31T21:33:51.550Z,70.01
2023-03-31T21:36:26.342Z,70.05
2023-03-31T21:38:58.127Z,70.09
2023-03-31T21:41:31.454Z,69.87
2023-03-31T21:44:04.204Z,69.99
2023-03-31T21:46:36.164Z,70.13
2023-03-31T21:49:08.034Z,69.76
2023-03-31T21:51:40.165Z,69.79
2023-03-31T21:54:11.977Z,69.57
2023-03-31T21:56:45.098Z,69.99
2023-03-31T21:59:16.806Z,69.99
2023-03-31T22:01:51.153Z,69.88
2023-03-31T22:04:23.097Z,70.27
2023-03-31T22:06:55.057Z,70.10
2023-03-31T22:09:27.636Z,69.72
2023-03-31T22:11:59.352Z,70.19
2023-03-31T22:14:31.550Z,70.03
2023-03-31T22:17:03.732Z,70.42
2023-03-31T22:19:36.075Z,70.28
2023-03-31T22:22:07.828Z,70.01
2023-03-31T22:24:39.683Z,70.19
2023-03-31T22:27:12.288Z,70.31
2023-03-31T22:29:44.148Z,70.24
2023-03-31T22:32:19.993Z,70.47
2023-03-31T22:34:51.744Z,70.33
2023-03-31T22:37:23.479Z,69.76
2023-03-31T22:39:55.232Z,69.73
2023-03-31T22:42:28.050Z,69.83
2023-03-31T22:45:00.257Z,69.70
2023-03-31T22:47:32.017Z,69.46
2023-03-31T22:50:04.114Z,69.40
2023-03-31T22:52:36.041Z,69.21
2023-03-31T22:55:07.989Z,69.33
2023-03-31T22:57:39.918Z,69.01
2023-03-31T23:00:12.807Z,69.06
2023-03-31T23:02:44.647Z,69.07
2023-03-31T23:05:16.417Z,69.13
2023-03-31T23:07:48.111Z,68.79
2023-03-31T23:10:19.795Z,68.85
2023-03-31T23:12:51.524Z,68.49
2023-03-31T23:15:23.538Z,68.34
2023-03-31T23:17:55.460Z,68.96
2023-03-31T23:20:27.470Z,68.85
2023-03-31T23:22:59.216Z,68.72
2023-03-31T23:25:31.401Z,68.32
2023-03-31T23:28:03.381Z,68.48
2023-03-31T23:30:35.117Z,68.42
2023-03-31T23:33:06.869Z,68.52
2023-03-31T23:35:38.603Z,68.36
2023-03-31T23:38:11.424Z,67.91
2023-03-31T23:40:44.722Z,68.18
2023-03-31T23:43:16.628Z,68.61
2023-03-31T23:45:48.423Z,68.79
2023-03-31T23:48:20.280Z,68.98
2023-03-31T23:50:52.065Z,69.11
2023-03-31T23:53:24.048Z,68.83
2023-03-31T23:55:57.894Z,69.18
2023-03-31T23:58:33.762Z,69.36
